createdAt,value
2023-08-15T00:00:16.008Z,1.92
2023-08-15T00:00:28.212Z,2.28
2023-08-15T00:00:40.301Z,2.35
2023-08-15T00:00:52.343Z,1.95
2023-08-15T00:01:04.461Z,2.30
2023-08-15T00:01:16.537Z,2.65
2023-08-15T00:01:28.705Z,1.90
2023-08-15T00:01:40.732Z,1.80
2023-08-15T00:01:52.737Z,1.50
2023-08-15T00:02:04.937Z,1.75
2023-08-15T00:02:17.032Z,2.75
2023-08-15T00:02:29.001Z,2.78
2023-08-15T00:02:41.066Z,4.32
2023-08-15T00:02:53.233Z,3.85
2023-08-15T00:03:05.632Z,2.30
2023-08-15T00:03:17.991Z,2.50
2023-08-15T00:03:30.225Z,2.20
2023-08-15T00:03:42.322Z,1.67
2023-08-15T00:03:54.554Z,1.77
2023-08-15T00:04:06.613Z,2.03
2023-08-15T00:04:18.572Z,1.90
2023-08-15T00:04:33.026Z,2.63
2023-08-15T00:04:45.036Z,4.40
2023-08-15T00:04:57.345Z,3.85
2023-08-15T00:05:09.580Z,3.67
2023-08-15T00:05:21.695Z,2.08
2023-08-15T00:05:33.704Z,1.90
2023-08-15T00:05:45.689Z,1.85
2023-08-15T00:05:57.666Z,1.75
2023-08-15T00:06:09.646Z,2.13
2023-08-15T00:06:21.990Z,1.98
2023-08-15T00:06:33.931Z,2.38
2023-08-15T00:06:45.897Z,2.47
2023-08-15T00:06:57.913Z,1.80
2023-08-15T00:07:10.800Z,1.77
2023-08-15T00:07:22.880Z,1.95
2023-08-15T00:07:34.964Z,2.15
2023-08-15T00:07:46.965Z,1.58
2023-08-15T00:07:58.911Z,1.80
2023-08-15T00:08:10.933Z,1.90
2023-08-15T00:08:23.028Z,2.33
2023-08-15T00:08:34.974Z,2.50
2023-08-15T00:08:49.279Z,2.30
2023-08-15T00:09:01.392Z,2.25
2023-08-15T00:09:13.380Z,2.15
2023-08-15T00:09:25.393Z,2.05
2023-08-15T00:09:37.421Z,2.17
2023-08-15T00:09:49.394Z,1.83
2023-08-15T00:10:02.113Z,1.85
2023-08-15T00:10:14.071Z,3.05
2023-08-15T00:10:26.083Z,2.97
2023-08-15T00:10:38.129Z,2.33
2023-08-15T00:10:50.163Z,1.60
2023-08-15T00:11:02.112Z,1.88
2023-08-15T00:11:14.081Z,2.00
2023-08-15T00:11:26.099Z,1.90
2023-08-15T00:11:38.086Z,2.40
2023-08-15T00:11:50.015Z,2.38
2023-08-15T00:12:02.248Z,2.47
2023-08-15T00:12:14.225Z,2.10
2023-08-15T00:12:26.247Z,1.90
2023-08-15T00:12:38.211Z,1.70
2023-08-15T00:12:50.218Z,1.70
2023-08-15T00:13:04.134Z,1.52
2023-08-15T00:13:16.165Z,1.80
2023-08-15T00:13:28.422Z,1.80
2023-08-15T00:13:40.465Z,2.25
2023-08-15T00:13:56.752Z,1.95
2023-08-15T00:14:09.083Z,1.80
2023-08-15T00:14:21.115Z,1.80
2023-08-15T00:14:33.276Z,1.95
2023-08-15T00:14:45.275Z,1.80
2023-08-15T00:14:58.074Z,1.90
2023-08-15T00:15:10.611Z,1.90
2023-08-15T00:15:22.662Z,1.90
2023-08-15T00:15:36.121Z,2.38
2023-08-15T00:15:48.149Z,3.25
2023-08-15T00:16:00.154Z,3.50
2023-08-15T00:16:12.163Z,2.60
2023-08-15T00:16:24.551Z,2.53
2023-08-15T00:16:36.601Z,1.75
2023-08-15T00:16:48.699Z,2.35
2023-08-15T00:17:00.793Z,2.33
2023-08-15T00:17:13.162Z,4.40
2023-08-15T00:17:25.536Z,4.20
2023-08-15T00:17:37.575Z,3.00
2023-08-15T00:17:49.650Z,2.28
2023-08-15T00:18:02.019Z,1.50
2023-08-15T00:18:14.128Z,1.67
2023-08-15T00:18:26.188Z,1.50
2023-08-15T00:18:38.146Z,1.50
2023-08-15T00:18:50.310Z,1.50
2023-08-15T00:19:03.771Z,1.42
2023-08-15T00:19:15.752Z,1.40
2023-08-15T00:19:27.747Z,1.77
2023-08-15T00:19:40.591Z,1.83
2023-08-15T00:19:52.559Z,1.60
2023-08-15T00:20:05.105Z,1.52
2023-08-15T00:20:17.060Z,1.43
2023-08-15T00:20:29.114Z,1.40
2023-08-15T00:20:41.088Z,1.60
2023-08-15T00:20:53.077Z,1.60
2023-08-15T00:21:05.081Z,2.38
2023-08-15T00:21:17.032Z,3.45
2023-08-15T00:21:29.128Z,4.07
2023-08-15T00:21:41.093Z,3.33
2023-08-15T00:21:53.103Z,1.98
2023-08-15T00:22:05.218Z,1.90
2023-08-15T00:22:18.609Z,1.55
2023-08-15T00:22:30.586Z,1.40
2023-08-15T00:22:43.007Z,1.52
2023-08-15T00:22:54.980Z,1.55
2023-08-15T00:23:07.131Z,1.80
2023-08-15T00:23:19.120Z,1.90
2023-08-15T00:23:31.057Z,1.63
2023-08-15T00:23:43.005Z,1.73
2023-08-15T00:23:55.288Z,1.75
2023-08-15T00:24:07.425Z,1.85
2023-08-15T00:24:19.415Z,1.60
2023-08-15T00:24:31.447Z,1.48
2023-08-15T00:24:43.462Z,1.40
2023-08-15T00:24:55.426Z,1.40
2023-08-15T00:25:07.696Z,1.88
2023-08-15T00:25:19.768Z,2.70
2023-08-15T00:25:31.778Z,2.75
2023-08-15T00:25:43.840Z,2.85
2023-08-15T00:25:55.836Z,3.17
2023-08-15T00:26:07.818Z,3.08
2023-08-15T00:26:19.793Z,1.77
2023-08-15T00:26:32.052Z,1.70
2023-08-15T00:26:44.036Z,2.20
2023-08-15T00:26:56.025Z,2.13
2023-08-15T00:27:08.001Z,2.10
2023-08-15T00:27:20.115Z,1.50
2023-08-15T00:27:32.354Z,1.50
2023-08-15T00:27:44.374Z,2.28
2023-08-15T00:27:56.391Z,2.35
2023-08-15T00:28:08.345Z,1.83
2023-08-15T00:28:20.353Z,1.80
2023-08-15T00:28:32.306Z,1.63
2023-08-15T00:28:44.323Z,1.83
2023-08-15T00:28:56.319Z,2.00
2023-08-15T00:29:08.344Z,2.80
2023-08-15T00:29:20.272Z,2.22
2023-08-15T00:29:32.235Z,1.83
2023-08-15T00:29:44.225Z,2.53
2023-08-15T00:29:56.300Z,3.13
2023-08-15T00:30:08.766Z,2.35
2023-08-15T00:30:20.839Z,1.75
2023-08-15T00:30:34.114Z,1.48
2023-08-15T00:30:46.184Z,1.45
2023-08-15T00:30:58.309Z,1.80
2023-08-15T00:31:10.331Z,2.13
2023-08-15T00:31:22.489Z,2.17
2023-08-15T00:31:34.505Z,1.80
2023-08-15T00:31:46.469Z,1.52
2023-08-15T00:31:58.502Z,1.63
2023-08-15T00:32:10.562Z,1.60
2023-08-15T00:32:22.603Z,1.80
2023-08-15T00:32:37.031Z,2.00
2023-08-15T00:32:49.232Z,2.20
2023-08-15T00:33:02.039Z,2.20
2023-08-15T00:33:14.151Z,2.35
2023-08-15T00:33:26.077Z,1.77
2023-08-15T00:33:38.105Z,1.85
2023-08-15T00:33:50.078Z,1.92
2023-08-15T00:34:02.151Z,3.03
2023-08-15T00:34:14.107Z,2.88
2023-08-15T00:34:26.124Z,1.55
2023-08-15T00:34:38.107Z,1.42
2023-08-15T00:34:50.042Z,1.58
2023-08-15T00:35:05.562Z,1.88
2023-08-15T00:35:17.535Z,1.92
2023-08-15T00:35:29.517Z,2.08
2023-08-15T00:35:43.837Z,2.30
2023-08-15T00:35:55.865Z,2.10
2023-08-15T00:36:08.276Z,2.13
2023-08-15T00:36:20.249Z,2.33
2023-08-15T00:36:32.214Z,2.25
2023-08-15T00:36:44.171Z,2.10
2023-08-15T00:36:56.145Z,2.40
2023-08-15T00:37:08.097Z,2.75
2023-08-15T00:37:20.371Z,2.78
2023-08-15T00:37:33.063Z,3.00
2023-08-15T00:37:45.118Z,3.10
2023-08-15T00:37:57.335Z,3.58
2023-08-15T00:38:09.303Z,3.53
2023-08-15T00:38:21.308Z,4.45
2023-08-15T00:38:33.324Z,4.20
2023-08-15T00:38:45.382Z,3.80
2023-08-15T00:38:57.446Z,3.30
2023-08-15T00:39:09.449Z,3.53
2023-08-15T00:39:21.457Z,3.90
2023-08-15T00:39:33.386Z,3.60
2023-08-15T00:39:45.356Z,3.42
2023-08-15T00:39:57.373Z,3.45
2023-08-15T00:40:09.949Z,3.72
2023-08-15T00:40:21.918Z,3.70
2023-08-15T00:40:34.000Z,3.50
2023-08-15T00:40:45.989Z,3.45
2023-08-15T00:40:58.012Z,3.20
2023-08-15T00:41:10.572Z,3.17
2023-08-15T00:41:22.503Z,3.20
2023-08-15T00:41:34.432Z,3.00
2023-08-15T00:41:46.422Z,2.65
2023-08-15T00:41:58.475Z,2.50
2023-08-15T00:42:10.471Z,2.50
2023-08-15T00:42:22.506Z,2.53
2023-08-15T00:42:34.492Z,2.60
2023-08-15T00:42:46.452Z,2.63
2023-08-15T00:42:58.446Z,2.65
2023-08-15T00:43:16.125Z,2.58
2023-08-15T00:43:28.056Z,2.55
2023-08-15T00:43:40.037Z,2.58
2023-08-15T00:43:51.998Z,2.10
2023-08-15T00:44:04.262Z,2.00
2023-08-15T00:44:16.209Z,2.05
2023-08-15T00:44:28.160Z,2.45
2023-08-15T00:44:43.735Z,2.70
2023-08-15T00:44:55.735Z,2.75
2023-08-15T00:45:08.190Z,3.25
2023-08-15T00:45:20.271Z,3.40
2023-08-15T00:45:33.654Z,2.38
2023-08-15T00:45:45.946Z,2.10
2023-08-15T00:46:00.832Z,2.10
2023-08-15T00:46:13.033Z,2.22
2023-08-15T00:46:26.620Z,2.60
2023-08-15T00:46:39.282Z,2.20
2023-08-15T00:46:51.461Z,2.00
2023-08-15T00:47:03.665Z,2.20
2023-08-15T00:47:15.820Z,2.00
2023-08-15T00:47:28.465Z,2.42
2023-08-15T00:47:40.994Z,2.83
2023-08-15T00:47:53.125Z,2.88
2023-08-15T00:48:07.300Z,2.40
2023-08-15T00:48:21.128Z,3.25
2023-08-15T00:48:34.005Z,3.22
2023-08-15T00:48:46.286Z,2.50
2023-08-15T00:48:59.358Z,2.15
2023-08-15T00:49:11.575Z,2.05
2023-08-15T00:49:23.686Z,2.00
2023-08-15T00:49:35.799Z,2.25
2023-08-15T00:49:47.864Z,2.35
2023-08-15T00:50:01.082Z,2.13
2023-08-15T00:50:13.472Z,1.92
2023-08-15T00:50:25.859Z,2.25
2023-08-15T00:50:39.558Z,2.38
2023-08-15T00:50:51.645Z,1.92
2023-08-15T00:51:03.966Z,1.70
2023-08-15T00:51:17.734Z,1.80
2023-08-15T00:51:29.760Z,3.58
2023-08-15T00:51:42.044Z,3.53
2023-08-15T00:51:54.187Z,2.25
2023-08-15T00:52:07.144Z,2.10
2023-08-15T00:52:19.285Z,2.10
2023-08-15T00:52:31.504Z,2.08
2023-08-15T00:52:43.649Z,1.85
2023-08-15T00:52:56.351Z,1.73
2023-08-15T00:53:08.980Z,2.03
2023-08-15T00:53:21.018Z,2.20
2023-08-15T00:53:35.181Z,2.08
2023-08-15T00:53:48.286Z,1.95
2023-08-15T00:54:01.272Z,2.10
2023-08-15T00:54:13.809Z,2.30
2023-08-15T00:54:25.858Z,3.40
2023-08-15T00:54:38.541Z,2.97
2023-08-15T00:54:51.603Z,2.20
2023-08-15T00:55:04.199Z,1.90
2023-08-15T00:55:18.538Z,2.10
2023-08-15T00:55:31.626Z,2.57
2023-08-15T00:55:45.235Z,2.70
2023-08-15T00:55:58.954Z,2.72
2023-08-15T00:56:11.650Z,2.08
2023-08-15T00:56:23.769Z,2.40
2023-08-15T00:56:36.201Z,3.03
2023-08-15T00:56:48.194Z,3.13
2023-08-15T00:57:00.589Z,2.28
2023-08-15T00:57:12.655Z,2.05
2023-08-15T00:57:24.718Z,2.13
2023-08-15T00:57:37.270Z,2.33
2023-08-15T00:57:49.270Z,2.53
2023-08-15T00:58:01.357Z,2.03
2023-08-15T00:58:13.492Z,2.80
2023-08-15T00:58:26.014Z,3.55
2023-08-15T00:58:38.274Z,2.92
2023-08-15T00:58:50.567Z,3.08
2023-08-15T00:59:03.758Z,2.70
2023-08-15T00:59:16.102Z,2.85
2023-08-15T00:59:28.123Z,2.60
2023-08-15T00:59:43.443Z,1.65
2023-08-15T00:59:55.678Z,1.67
2023-08-15T01:00:08.271Z,1.80
2023-08-15T01:00:20.338Z,1.75
2023-08-15T01:00:32.689Z,1.88
2023-08-15T01:00:44.738Z,1.90
2023-08-15T01:00:57.345Z,2.28
2023-08-15T01:01:18.649Z,2.75
2023-08-15T01:01:32.189Z,2.90
2023-08-15T01:01:44.609Z,1.90
2023-08-15T01:01:57.383Z,1.80
2023-08-15T01:02:09.587Z,1.80
2023-08-15T01:02:21.714Z,1.73
2023-08-15T01:02:34.300Z,1.92
2023-08-15T01:02:46.404Z,1.70
2023-08-15T01:02:58.710Z,1.50
2023-08-15T01:03:11.324Z,1.40
2023-08-15T01:03:23.854Z,1.35
2023-08-15T01:03:37.289Z,1.20
2023-08-15T01:03:50.417Z,1.55
2023-08-15T01:04:02.940Z,1.92
2023-08-15T01:04:15.840Z,1.85
2023-08-15T01:04:27.910Z,3.53
2023-08-15T01:04:41.882Z,3.58
2023-08-15T01:04:54.113Z,2.10
2023-08-15T01:05:06.597Z,3.25
2023-08-15T01:05:20.734Z,3.05
2023-08-15T01:05:33.099Z,2.75
2023-08-15T01:05:45.410Z,1.90
2023-08-15T01:05:57.851Z,2.00
2023-08-15T01:06:10.345Z,2.20
2023-08-15T01:06:22.392Z,2.30
2023-08-15T01:06:34.340Z,3.35
2023-08-15T01:06:46.275Z,3.25
2023-08-15T01:06:58.958Z,3.33
2023-08-15T01:07:11.370Z,2.15
2023-08-15T01:07:23.607Z,2.00
2023-08-15T01:07:36.105Z,3.20
2023-08-15T01:07:48.625Z,3.40
2023-08-15T01:08:01.120Z,1.70
2023-08-15T01:08:13.181Z,1.58
2023-08-15T01:08:25.136Z,1.52
2023-08-15T01:08:37.093Z,1.65
2023-08-15T01:08:49.368Z,2.90
2023-08-15T01:09:02.098Z,3.58
2023-08-15T01:09:14.399Z,3.40
2023-08-15T01:09:26.359Z,2.28
2023-08-15T01:09:38.930Z,1.90
2023-08-15T01:09:50.912Z,1.63
2023-08-15T01:10:02.893Z,2.03
2023-08-15T01:10:15.000Z,2.50
2023-08-15T01:10:27.176Z,3.55
2023-08-15T01:10:40.921Z,3.53
2023-08-15T01:10:52.933Z,3.17
2023-08-15T01:11:05.420Z,2.95
2023-08-15T01:11:17.441Z,2.97
2023-08-15T01:11:36.620Z,2.33
2023-08-15T01:12:16.047Z,2.50
2023-08-15T01:12:58.953Z,1.98
2023-08-15T01:13:15.162Z,1.92
2023-08-15T01:13:33.014Z,1.98
2023-08-15T01:13:54.465Z,4.88
2023-08-15T01:14:13.306Z,5.07
2023-08-15T01:14:33.773Z,2.15
2023-08-15T01:14:56.274Z,2.85
2023-08-15T01:15:17.998Z,2.28
2023-08-15T01:15:32.774Z,1.77
2023-08-15T01:15:50.716Z,1.95
2023-08-15T01:16:08.324Z,2.38
2023-08-15T01:16:29.269Z,1.88
2023-08-15T01:16:45.169Z,1.70
2023-08-15T01:16:57.923Z,1.60
2023-08-15T01:17:16.780Z,1.80
2023-08-15T01:17:59.523Z,2.33
2023-08-15T01:19:16.488Z,2.17
2023-08-15T01:19:34.523Z,1.80
2023-08-15T01:19:49.748Z,1.83
2023-08-15T01:20:08.009Z,2.10
2023-08-15T01:20:27.450Z,2.45
2023-08-15T01:20:40.449Z,2.63
2023-08-15T01:20:55.713Z,2.47
2023-08-15T01:21:08.548Z,2.15
2023-08-15T01:21:26.287Z,2.08
2023-08-15T01:21:44.639Z,3.20
2023-08-15T01:22:00.137Z,3.45
2023-08-15T01:22:16.935Z,2.08
2023-08-15T01:22:31.969Z,2.33
2023-08-15T01:22:48.033Z,1.92
2023-08-15T01:23:07.143Z,1.88
2023-08-15T01:23:25.100Z,1.73
2023-08-15T01:23:43.409Z,2.90
2023-08-15T01:23:57.129Z,2.20
2023-08-15T01:24:09.174Z,1.98
2023-08-15T01:24:21.526Z,2.03
2023-08-15T01:24:33.898Z,2.70
2023-08-15T01:24:46.360Z,2.70
2023-08-15T01:24:59.169Z,1.60
2023-08-15T01:25:11.115Z,2.30
2023-08-15T01:25:23.095Z,2.45
2023-08-15T01:25:42.410Z,2.13
2023-08-15T01:25:58.523Z,2.22
2023-08-15T01:26:10.810Z,2.45
2023-08-15T01:26:22.842Z,2.38
2023-08-15T01:26:35.645Z,2.42
2023-08-15T01:26:47.659Z,2.03
2023-08-15T01:26:59.625Z,2.08
2023-08-15T01:27:11.608Z,2.20
2023-08-15T01:27:23.833Z,2.08
2023-08-15T01:27:35.952Z,2.03
2023-08-15T01:27:47.965Z,1.90
2023-08-15T01:28:00.778Z,2.30
2023-08-15T01:28:14.067Z,2.00
2023-08-15T01:28:26.021Z,2.17
2023-08-15T01:28:39.984Z,1.50
2023-08-15T01:28:51.923Z,1.50
2023-08-15T01:29:04.592Z,1.90
2023-08-15T01:29:16.584Z,2.10
2023-08-15T01:29:28.810Z,1.90
2023-08-15T01:29:40.753Z,1.77
2023-08-15T01:29:52.749Z,1.67
2023-08-15T01:30:05.820Z,1.77
2023-08-15T01:30:19.589Z,1.77
2023-08-15T01:30:31.718Z,1.60
2023-08-15T01:30:49.847Z,1.45
2023-08-15T01:31:33.643Z,1.73
2023-08-15T01:31:56.049Z,3.28
2023-08-15T01:32:52.988Z,2.03
2023-08-15T01:33:16.560Z,1.92
2023-08-15T01:33:38.671Z,2.25
2023-08-15T01:34:02.066Z,2.60
2023-08-15T01:34:21.957Z,3.05
2023-08-15T01:34:41.917Z,2.40
2023-08-15T01:35:20.500Z,2.10
2023-08-15T01:35:38.986Z,2.08
2023-08-15T01:36:01.134Z,2.80
2023-08-15T01:36:23.941Z,2.58
2023-08-15T01:36:43.205Z,2.95
2023-08-15T01:37:04.299Z,2.47
2023-08-15T01:37:30.487Z,3.25
2023-08-15T01:37:45.892Z,2.30
2023-08-15T01:38:08.341Z,1.98
2023-08-15T01:38:27.615Z,2.15
2023-08-15T01:38:43.106Z,3.60
2023-08-15T01:39:01.713Z,3.13
2023-08-15T01:39:19.032Z,2.08
2023-08-15T01:39:32.198Z,3.90
2023-08-15T01:39:48.269Z,3.15
2023-08-15T01:40:03.275Z,1.50
2023-08-15T01:40:18.603Z,1.95
2023-08-15T01:40:35.001Z,1.90
2023-08-15T01:40:51.172Z,1.88
2023-08-15T01:41:06.799Z,2.35
2023-08-15T01:41:21.846Z,2.13
2023-08-15T01:41:38.853Z,2.08
2023-08-15T01:41:53.786Z,1.73
2023-08-15T01:42:07.409Z,1.70
2023-08-15T01:42:21.979Z,1.73
2023-08-15T01:42:35.123Z,1.85
2023-08-15T01:42:50.466Z,2.10
2023-08-15T01:43:03.858Z,1.98
2023-08-15T01:43:17.727Z,1.83
2023-08-15T01:43:31.148Z,2.20
2023-08-15T01:43:45.132Z,2.00
2023-08-15T01:43:57.378Z,1.60
2023-08-15T01:44:12.664Z,1.67
2023-08-15T01:44:26.109Z,1.77
2023-08-15T01:44:38.633Z,2.42
2023-08-15T01:44:51.483Z,2.50
2023-08-15T01:45:04.367Z,2.40
2023-08-15T01:45:17.696Z,2.00
2023-08-15T01:45:30.784Z,1.70
2023-08-15T01:45:43.216Z,2.10
2023-08-15T01:45:55.982Z,2.45
2023-08-15T01:46:08.850Z,2.08
2023-08-15T01:46:21.064Z,1.60
2023-08-15T01:46:33.479Z,1.52
2023-08-15T01:46:47.927Z,1.70
2023-08-15T01:47:00.482Z,1.85
2023-08-15T01:47:12.567Z,5.38
2023-08-15T01:47:24.591Z,5.40
2023-08-15T01:47:37.369Z,3.45
2023-08-15T01:47:50.478Z,1.63
2023-08-15T01:48:02.582Z,1.70
2023-08-15T01:48:14.625Z,2.20
2023-08-15T01:48:26.536Z,2.40
2023-08-15T01:48:43.052Z,2.58
2023-08-15T01:48:55.053Z,2.40
2023-08-15T01:49:07.018Z,2.47
2023-08-15T01:49:19.008Z,2.13
2023-08-15T01:49:30.948Z,2.00
2023-08-15T01:49:43.073Z,2.50
2023-08-15T01:49:55.072Z,2.88
2023-08-15T01:50:07.697Z,3.03
2023-08-15T01:50:19.696Z,2.92
2023-08-15T01:50:31.677Z,2.72
2023-08-15T01:50:43.725Z,2.03
2023-08-15T01:50:55.861Z,1.60
2023-08-15T01:51:08.402Z,2.47
2023-08-15T01:51:20.388Z,2.50
2023-08-15T01:51:32.381Z,3.45
2023-08-15T01:51:44.412Z,3.40
2023-08-15T01:51:58.209Z,2.40
2023-08-15T01:52:10.321Z,1.85
2023-08-15T01:52:22.329Z,1.80
2023-08-15T01:52:34.327Z,1.73
2023-08-15T01:52:46.350Z,1.90
2023-08-15T01:52:58.383Z,2.20
2023-08-15T01:53:10.347Z,1.83
2023-08-15T01:53:22.410Z,1.67
2023-08-15T01:53:36.009Z,1.85
2023-08-15T01:53:48.029Z,3.70
2023-08-15T01:53:59.995Z,3.70
2023-08-15T01:54:11.934Z,2.83
2023-08-15T01:54:23.983Z,2.50
2023-08-15T01:54:35.967Z,2.38
2023-08-15T01:54:47.914Z,2.47
2023-08-15T01:54:59.887Z,2.38
2023-08-15T01:55:12.139Z,1.60
2023-08-15T01:55:24.162Z,1.75
2023-08-15T01:55:36.099Z,1.80
2023-08-15T01:55:48.180Z,1.85
2023-08-15T01:56:00.099Z,1.90
2023-08-15T01:56:14.084Z,2.60
2023-08-15T01:56:26.129Z,2.38
2023-08-15T01:56:38.130Z,1.77
2023-08-15T01:56:50.076Z,2.35
2023-08-15T01:57:02.051Z,2.38
2023-08-15T01:57:13.988Z,2.17
2023-08-15T01:57:25.948Z,2.15
2023-08-15T01:57:37.893Z,2.42
2023-08-15T01:57:49.813Z,2.72
2023-08-15T01:58:01.810Z,2.93
2023-08-15T01:58:13.737Z,2.78
2023-08-15T01:58:25.728Z,2.40
2023-08-15T01:58:37.713Z,1.95
2023-08-15T01:58:49.680Z,2.30
2023-08-15T01:59:01.669Z,2.90
2023-08-15T01:59:13.629Z,2.95
2023-08-15T01:59:25.616Z,2.28
2023-08-15T01:59:37.622Z,2.13
2023-08-15T01:59:49.560Z,2.53
2023-08-15T02:00:01.507Z,3.42
2023-08-15T02:00:13.714Z,3.40
2023-08-15T02:00:25.760Z,2.58
2023-08-15T02:00:37.709Z,2.30
2023-08-15T02:00:49.951Z,2.03
2023-08-15T02:01:05.135Z,2.22
2023-08-15T02:01:17.207Z,3.22
2023-08-15T02:01:29.193Z,3.03
2023-08-15T02:01:41.238Z,2.58
2023-08-15T02:01:53.234Z,2.30
2023-08-15T02:02:07.819Z,2.30
2023-08-15T02:02:19.995Z,2.25
2023-08-15T02:02:32.054Z,2.50
2023-08-15T02:02:44.164Z,1.80
2023-08-15T02:02:56.192Z,2.03
2023-08-15T02:03:08.186Z,1.98
2023-08-15T02:03:20.217Z,1.77
2023-08-15T02:03:32.221Z,2.00
2023-08-15T02:03:44.202Z,1.73
2023-08-15T02:03:56.232Z,1.77
2023-08-15T02:04:08.206Z,2.42
2023-08-15T02:04:20.210Z,2.80
2023-08-15T02:04:32.158Z,2.78
2023-08-15T02:04:44.136Z,1.90
2023-08-15T02:04:56.751Z,1.75
2023-08-15T02:05:08.969Z,1.73
2023-08-15T02:05:21.120Z,1.88
2023-08-15T02:05:35.614Z,2.40
2023-08-15T02:05:48.140Z,2.28
2023-08-15T02:06:00.249Z,1.90
2023-08-15T02:06:12.309Z,2.05
2023-08-15T02:06:24.298Z,1.92
2023-08-15T02:06:36.213Z,1.80
2023-08-15T02:06:48.151Z,2.20
2023-08-15T02:07:00.192Z,2.15
2023-08-15T02:07:12.184Z,2.05
2023-08-15T02:07:24.177Z,1.60
2023-08-15T02:07:36.105Z,2.38
2023-08-15T02:07:48.032Z,2.38
2023-08-15T02:08:00.263Z,1.63
2023-08-15T02:08:12.206Z,1.63
2023-08-15T02:08:24.228Z,2.08
2023-08-15T02:08:36.192Z,3.40
2023-08-15T02:08:48.140Z,3.97
2023-08-15T02:09:00.159Z,3.25
2023-08-15T02:09:12.100Z,3.65
2023-08-15T02:09:24.145Z,3.20
2023-08-15T02:09:36.103Z,2.85
2023-08-15T02:09:48.083Z,2.28
2023-08-15T02:10:00.288Z,1.83
2023-08-15T02:10:12.231Z,1.75
2023-08-15T02:10:24.279Z,1.90
2023-08-15T02:10:36.259Z,2.33
2023-08-15T02:10:48.279Z,2.60
2023-08-15T02:11:00.273Z,2.35
2023-08-15T02:11:12.351Z,2.00
2023-08-15T02:11:24.364Z,1.88
2023-08-15T02:11:36.357Z,2.10
2023-08-15T02:11:48.368Z,1.98
2023-08-15T02:12:00.293Z,1.92
2023-08-15T02:12:12.203Z,1.77
2023-08-15T02:12:24.205Z,1.75
2023-08-15T02:12:36.220Z,1.60
2023-08-15T02:12:48.244Z,1.42
2023-08-15T02:13:00.229Z,1.45
2023-08-15T02:13:12.213Z,2.90
2023-08-15T02:13:24.168Z,2.90
2023-08-15T02:13:36.128Z,1.95
2023-08-15T02:13:48.383Z,1.75
2023-08-15T02:14:00.309Z,1.77
2023-08-15T02:14:12.327Z,2.17
2023-08-15T02:14:24.287Z,2.55
2023-08-15T02:14:36.241Z,2.42
2023-08-15T02:14:48.231Z,2.85
2023-08-15T02:15:00.202Z,3.00
2023-08-15T02:15:13.120Z,2.58
2023-08-15T02:15:25.165Z,2.13
2023-08-15T02:15:37.159Z,1.90
2023-08-15T02:15:49.192Z,2.08
2023-08-15T02:16:02.206Z,2.10
2023-08-15T02:16:14.286Z,1.77
2023-08-15T02:16:26.290Z,1.65
2023-08-15T02:16:38.282Z,2.28
2023-08-15T02:16:50.257Z,2.20
2023-08-15T02:17:02.248Z,1.97
2023-08-15T02:17:14.448Z,2.00
2023-08-15T02:17:26.340Z,2.00
2023-08-15T02:17:38.170Z,1.98
2023-08-15T02:17:50.173Z,1.90
2023-08-15T02:18:02.197Z,1.80
2023-08-15T02:18:14.211Z,1.75
2023-08-15T02:18:28.365Z,1.90
2023-08-15T02:18:42.281Z,1.90
2023-08-15T02:18:54.702Z,1.85
2023-08-15T02:19:06.770Z,2.85
2023-08-15T02:19:18.764Z,2.83
2023-08-15T02:19:30.730Z,3.05
2023-08-15T02:19:42.882Z,2.30
2023-08-15T02:19:54.936Z,2.47
2023-08-15T02:20:07.422Z,3.08
2023-08-15T02:20:19.605Z,3.75
2023-08-15T02:20:31.564Z,3.30
2023-08-15T02:20:43.580Z,2.15
2023-08-15T02:20:55.758Z,2.15
2023-08-15T02:21:07.812Z,3.00
2023-08-15T02:21:19.859Z,2.70
2023-08-15T02:21:31.918Z,1.75
2023-08-15T02:21:43.887Z,1.35
2023-08-15T02:21:55.933Z,1.80
2023-08-15T02:22:08.159Z,2.00
2023-08-15T02:22:20.329Z,2.30
2023-08-15T02:22:32.637Z,3.42
2023-08-15T02:22:44.990Z,3.30
2023-08-15T02:22:57.002Z,2.20
2023-08-15T02:23:09.036Z,2.10
2023-08-15T02:23:21.331Z,1.73
2023-08-15T02:23:33.264Z,2.35
2023-08-15T02:23:45.210Z,2.83
2023-08-15T02:23:57.174Z,2.90
2023-08-15T02:24:09.177Z,1.93
2023-08-15T02:24:21.221Z,1.85
2023-08-15T02:24:33.180Z,1.67
2023-08-15T02:24:45.137Z,1.80
2023-08-15T02:24:57.137Z,2.70
2023-08-15T02:25:09.274Z,2.70
2023-08-15T02:25:21.366Z,2.85
2023-08-15T02:25:33.377Z,1.93
2023-08-15T02:25:45.365Z,2.30
2023-08-15T02:25:57.334Z,2.22
2023-08-15T02:26:09.283Z,2.30
2023-08-15T02:26:21.320Z,2.20
2023-08-15T02:26:33.526Z,2.25
2023-08-15T02:26:45.504Z,1.80
2023-08-15T02:26:57.493Z,2.00
2023-08-15T02:27:09.592Z,2.08
2023-08-15T02:27:21.804Z,2.08
2023-08-15T02:27:34.014Z,1.95
2023-08-15T02:27:45.981Z,1.75
2023-08-15T02:27:57.947Z,2.05
2023-08-15T02:28:09.916Z,2.10
2023-08-15T02:28:22.074Z,2.08
2023-08-15T02:28:34.166Z,2.08
2023-08-15T02:28:46.128Z,2.33
2023-08-15T02:28:58.102Z,2.38
2023-08-15T02:29:10.026Z,1.98
2023-08-15T02:29:22.071Z,2.10
2023-08-15T02:29:34.076Z,1.92
2023-08-15T02:29:46.092Z,2.03
2023-08-15T02:29:58.111Z,1.60
2023-08-15T02:30:10.472Z,1.50
2023-08-15T02:30:22.389Z,2.20
2023-08-15T02:30:38.237Z,2.13
2023-08-15T02:30:50.301Z,3.00
2023-08-15T02:31:05.982Z,3.30
2023-08-15T02:31:18.190Z,2.20
2023-08-15T02:31:31.628Z,1.85
2023-08-15T02:31:45.029Z,2.78
2023-08-15T02:31:56.948Z,3.95
2023-08-15T02:32:08.941Z,3.47
2023-08-15T02:32:21.000Z,3.13
2023-08-15T02:32:33.223Z,2.53
2023-08-15T02:32:45.493Z,2.23
2023-08-15T02:32:57.601Z,1.92
2023-08-15T02:33:09.637Z,1.90
2023-08-15T02:33:21.712Z,2.00
2023-08-15T02:33:34.111Z,1.98
2023-08-15T02:33:46.113Z,2.30
2023-08-15T02:33:58.032Z,3.08
2023-08-15T02:34:10.008Z,3.05
2023-08-15T02:34:22.002Z,2.88
2023-08-15T02:34:33.993Z,2.28
2023-08-15T02:34:46.012Z,2.00
2023-08-15T02:34:57.967Z,1.70
2023-08-15T02:35:10.168Z,1.85
2023-08-15T02:35:22.131Z,1.90
2023-08-15T02:35:34.540Z,2.08
2023-08-15T02:35:46.633Z,3.00
2023-08-15T02:36:05.595Z,3.03
2023-08-15T02:36:17.543Z,1.90
2023-08-15T02:36:29.562Z,2.13
2023-08-15T02:36:41.493Z,3.10
2023-08-15T02:36:53.467Z,3.20
2023-08-15T02:37:05.535Z,1.75
2023-08-15T02:37:17.513Z,2.97
2023-08-15T02:37:29.554Z,3.22
2023-08-15T02:37:41.527Z,2.60
2023-08-15T02:37:53.497Z,1.90
2023-08-15T02:38:05.477Z,2.60
2023-08-15T02:38:17.475Z,3.90
2023-08-15T02:38:29.460Z,3.30
2023-08-15T02:38:41.465Z,2.13
2023-08-15T02:38:53.513Z,2.13
2023-08-15T02:39:05.738Z,2.72
2023-08-15T02:39:17.930Z,2.75
2023-08-15T02:39:29.906Z,2.78
2023-08-15T02:39:41.970Z,2.08
2023-08-15T02:39:53.893Z,2.13
2023-08-15T02:40:07.474Z,2.20
2023-08-15T02:40:19.478Z,2.60
2023-08-15T02:40:31.520Z,2.35
2023-08-15T02:40:43.766Z,1.60
2023-08-15T02:40:55.743Z,1.88
2023-08-15T02:41:07.765Z,1.90
2023-08-15T02:41:21.085Z,1.95
2023-08-15T02:41:33.026Z,1.65
2023-08-15T02:41:44.984Z,1.60
2023-08-15T02:41:56.982Z,1.63
2023-08-15T02:42:08.957Z,1.88
2023-08-15T02:42:20.871Z,2.58
2023-08-15T02:42:33.702Z,2.90
2023-08-15T02:42:45.699Z,2.10
2023-08-15T02:42:57.670Z,2.85
2023-08-15T02:43:09.965Z,2.75
2023-08-15T02:43:21.984Z,3.05
2023-08-15T02:43:34.003Z,4.65
2023-08-15T02:43:45.992Z,4.80
2023-08-15T02:43:57.970Z,2.20
2023-08-15T02:44:10.089Z,1.90
2023-08-15T02:44:22.128Z,2.00
2023-08-15T02:44:34.520Z,1.75
2023-08-15T02:44:46.744Z,1.67
2023-08-15T02:44:58.692Z,2.03
2023-08-15T02:45:10.885Z,2.03
2023-08-15T02:45:22.892Z,1.70
2023-08-15T02:45:35.035Z,1.83
2023-08-15T02:45:46.806Z,2.80
2023-08-15T02:45:58.773Z,2.45
2023-08-15T02:46:10.764Z,1.50
2023-08-15T02:46:23.418Z,1.58
2023-08-15T02:46:35.485Z,1.70
2023-08-15T02:46:47.487Z,1.75
2023-08-15T02:46:59.502Z,1.85
2023-08-15T02:47:11.472Z,2.00
2023-08-15T02:47:23.610Z,2.10
2023-08-15T02:47:35.837Z,2.20
2023-08-15T02:47:47.894Z,2.13
2023-08-15T02:47:59.952Z,1.98
2023-08-15T02:48:11.894Z,2.50
2023-08-15T02:48:23.875Z,2.45
2023-08-15T02:48:35.823Z,2.05
2023-08-15T02:48:47.769Z,3.50
2023-08-15T02:49:00.084Z,2.90
2023-08-15T02:49:12.037Z,2.72
2023-08-15T02:49:23.977Z,1.90
2023-08-15T02:49:35.921Z,1.88
2023-08-15T02:49:47.881Z,1.98
2023-08-15T02:49:59.850Z,2.00
2023-08-15T02:50:12.988Z,2.10
2023-08-15T02:50:25.042Z,2.63
2023-08-15T02:50:37.002Z,2.85
2023-08-15T02:50:48.983Z,2.88
2023-08-15T02:51:00.959Z,1.80
2023-08-15T02:51:13.348Z,2.13
2023-08-15T02:51:25.438Z,2.00
2023-08-15T02:51:37.413Z,1.92
2023-08-15T02:51:49.480Z,1.70
2023-08-15T02:52:01.458Z,1.73
2023-08-15T02:52:13.426Z,1.60
2023-08-15T02:52:25.435Z,2.10
2023-08-15T02:52:37.471Z,2.40
2023-08-15T02:52:49.514Z,2.22
2023-08-15T02:53:01.485Z,2.38
2023-08-15T02:53:13.411Z,2.70
2023-08-15T02:53:25.780Z,3.75
2023-08-15T02:53:37.752Z,3.38
2023-08-15T02:53:49.720Z,2.90
2023-08-15T02:54:01.730Z,1.98
2023-08-15T02:54:13.657Z,3.53
2023-08-15T02:54:25.597Z,3.90